Latest Weather Observations for Christmas Island

IDW60801

Issued at 6:12 am WST Friday 21 June 2019 (issued every 10 minutes, with the page automatically refreshed every 10 minutes)

About weather observations | Map of weather stations | Latest weather observations for WA | Other Formats
Station Details ID: 200790 Name: CHRISTMAS ISLAND AERO Lat: -10.45 Lon: 105.69 Height: 261.0 m
Data from the previous 72 hours. | See also: Recent months at Christmas Island
Date/Time
WST
Temp
°C
App
Temp
°C
Dew
Point
°C
Rel
Hum
%
Delta-T
°C
Wind Press
QNH
hPa
Press
MSL
hPa
Rain since
9am
mm
Dir  Spd
km/h
Gust
km/h
Spd
kts
Gust
kts
21/06:00am 23.5 24.9 21.0 86 1.7 E 15 24 8 13 1013.1 1011.5 0.0
21/05:33am 23.6 24.5 20.9 85 1.8 E 17 24 9 13 1012.9 - 0.0
21/05:30am 23.5 24.4 20.8 85 1.8 E 17 24 9 13 1012.9 - 0.0
21/05:00am 23.6 24.1 20.9 85 1.8 E 19 28 10 15 1012.8 1011.2 0.0
21/04:30am 23.4 24.2 20.7 85 1.8 ESE 17 24 9 13 1012.5 - 0.0
21/04:14am 23.5 24.2 21.2 87 1.5 ESE 19 28 10 15 1012.4 - 0.0
21/04:12am 23.4 24.0 21.1 87 1.5 ESE 19 28 10 15 1012.4 - 0.0
21/04:10am 23.5 24.2 21.2 87 1.5 ESE 19 24 10 13 1012.4 1010.8 0.0
21/04:00am 23.3 24.1 20.6 85 1.8 E 17 28 9 15 1012.4 1010.8 0.0
21/03:52am 23.4 24.0 20.3 83 2.0 E 17 24 9 13 1012.4 - 0.0
21/03:49am 23.4 24.1 20.5 84 1.9 ESE 17 24 9 13 1012.4 1010.8 0.0
21/03:47am 23.4 24.0 20.3 83 2.0 E 17 24 9 13 1012.4 - 0.0
21/03:30am 23.4 23.9 20.9 86 1.7 ESE 19 28 10 15 1012.4 - 0.0
21/03:23am 23.5 23.5 21.0 86 1.7 ESE 22 30 12 16 1012.3 - 0.0
21/03:08am 23.5 23.4 20.8 85 1.8 ESE 22 30 12 16 1012.1 - 0.0
21/03:07am 23.5 23.8 20.8 85 1.8 ESE 20 30 11 16 1012.2 - 0.0
21/03:05am 23.5 23.4 20.8 85 1.8 ESE 22 30 12 16 1012.2 1010.6 0.0
21/03:04am 23.5 23.4 20.8 85 1.8 ESE 22 30 12 16 1012.1 1010.5 0.0
21/03:00am 23.5 23.4 20.8 85 1.8 ESE 22 30 12 16 1012.2 1010.5 0.0
21/02:49am 23.5 23.5 21.0 86 1.7 ESE 22 33 12 18 1012.1 - 0.0
21/02:46am 23.6 23.7 21.1 86 1.7 ESE 22 33 12 18 1012.1 1010.5 0.0
21/02:30am 23.3 23.6 20.8 86 1.6 ESE 20 24 11 13 1012.3 - 0.0
21/02:27am 23.4 23.7 20.7 85 1.8 ESE 20 28 11 15 1012.4 - 0.0
21/02:24am 23.4 23.7 20.7 85 1.8 ESE 20 28 11 15 1012.4 1010.8 0.0
21/02:09am 23.3 23.6 20.8 86 1.6 ESE 20 30 11 16 1012.8 - 0.0
21/02:06am 23.3 23.6 20.8 86 1.6 ESE 20 30 11 16 1012.8 1011.2 0.0
21/02:00am 23.3 23.7 21.0 87 1.5 ESE 20 28 11 15 1012.8 1011.2 0.0
21/01:48am 23.4 23.7 20.7 85 1.8 ESE 20 28 11 15 1013.0 - 0.0
21/01:45am 23.3 23.5 20.6 85 1.8 ESE 20 28 11 15 1013.0 1011.4 0.0
21/01:30am 23.4 23.8 20.9 86 1.7 ESE 20 28 11 15 1013.1 - 0.0
21/01:25am 23.5 23.9 21.0 86 1.7 ESE 20 28 11 15 1013.1 - 0.0
21/01:13am 23.6 23.7 21.1 86 1.7 ESE 22 30 12 16 1013.2 - 0.0
21/01:10am 23.5 23.5 21.0 86 1.7 ESE 22 30 12 16 1013.2 1011.6 0.0
21/01:09am 23.5 23.4 20.8 85 1.8 ESE 22 30 12 16 1013.2 - 0.0
21/01:08am 23.6 23.7 21.1 86 1.7 ESE 22 30 12 16 1013.2 - 0.0
21/01:06am 23.6 23.6 20.9 85 1.8 ESE 22 30 12 16 1013.2 1011.6 0.0
21/01:04am 23.5 23.4 20.8 85 1.8 ESE 22 32 12 17 1013.2 - 0.0
21/01:00am 23.5 23.3 20.6 84 1.9 ESE 22 32 12 17 1013.2 1011.7 0.0
21/12:50am 23.5 23.9 21.0 86 1.7 ESE 20 26 11 14 1013.2 - 0.0
21/12:48am 23.5 23.9 21.0 86 1.7 ESE 20 28 11 15 1013.2 1011.6 0.0
21/12:34am 23.6 23.7 21.1 86 1.7 ESE 22 30 12 16 1013.3 1011.7 0.0
21/12:30am 23.6 23.7 21.1 86 1.7 ESE 22 32 12 17 1013.3 - 0.0
21/12:25am 23.6 23.6 20.9 85 1.8 ESE 22 32 12 17 1013.4 - 0.0
21/12:10am 23.6 23.6 20.9 85 1.8 ESE 22 30 12 16 1013.5 - 0.0
21/12:00am 23.6 24.0 20.9 85 1.8 ESE 20 30 11 16 1013.6 1012.0 0.0
 
Date/Time
WST
Temp
°C
App
Temp
°C
Dew
Point
°C
Rel
Hum
%
Delta-T
°C
Wind Press
QNH
hPa
Press
MSL
hPa
Rain since
9am
mm
Dir  Spd
km/h
Gust
km/h
Spd
kts
Gust
kts
20/11:30pm 23.6 24.0 20.9 85 1.8 ESE 20 32 11 17 1013.8 1012.2 0.0
20/11:20pm 23.6 24.2 21.1 86 1.7 ESE 19 26 10 14 1013.7 - 0.0
20/11:00pm 23.6 24.1 20.9 85 1.8 ESE 19 26 10 14 1013.8 1012.2 0.0
20/10:30pm 23.6 24.0 20.7 84 1.9 ESE 19 28 10 15 1013.9 1012.3 0.0
20/10:21pm 23.7 24.3 21.0 85 1.8 E 19 28 10 15 1013.9 - 0.0
20/10:18pm 23.7 24.3 21.0 85 1.8 ESE 19 28 10 15 1013.9 1012.3 0.0
20/10:14pm 23.7 24.2 20.8 84 1.9 E 19 26 10 14 1013.9 - 0.0
20/10:11pm 23.7 24.2 20.8 84 1.9 E 19 26 10 14 1013.9 1012.3 0.0
20/10:00pm 23.6 24.4 20.7 84 1.9 E 17 24 9 13 1013.9 1012.4 0.0
20/09:38pm 23.6 24.1 20.9 85 1.8 E 19 32 10 17 1013.7 - 0.0
20/09:37pm 23.6 24.1 20.9 85 1.8 E 19 32 10 17 1013.7 - 0.0
20/09:30pm 23.6 24.0 20.9 85 1.8 ESE 20 32 11 17 1013.7 1012.1 0.0
20/09:02pm 23.8 23.8 20.9 84 1.9 E 22 32 12 17 1013.7 - 0.0
20/09:00pm 23.8 23.8 20.9 84 1.9 ESE 22 32 12 17 1013.7 1012.1 0.0
20/08:59pm 23.8 23.8 20.9 84 1.9 ESE 22 32 12 17 1013.7 1012.1 0.0
20/08:30pm 23.8 24.7 20.9 84 1.9 E 17 24 9 13 1013.7 1012.1 0.0
20/08:00pm 23.9 24.3 20.6 82 2.2 E 19 26 10 14 1013.3 1011.7 0.0
20/07:54pm 23.8 24.5 20.5 82 2.2 E 17 28 9 15 1013.2 - 0.0
20/07:30pm 23.9 24.3 20.6 82 2.2 E 19 28 10 15 1013.1 - 0.0
20/07:00pm 24.0 24.9 20.9 83 2.1 E 17 26 9 14 1012.9 1011.3 0.0
20/06:31pm 24.2 24.7 20.9 82 2.2 E 19 30 10 16 1012.9 - 0.0
20/06:30pm 24.1 24.6 20.8 82 2.2 E 19 26 10 14 1012.8 - 0.0
20/06:00pm 24.5 25.4 20.8 80 2.4 E 17 24 9 13 1012.9 1011.3 0.0
20/05:37pm 24.7 26.2 21.2 81 2.3 E 15 24 8 13 1012.8 - 0.0
20/05:30pm 24.5 25.5 21.0 81 2.3 ESE 17 24 9 13 1012.8 1011.2 0.0
20/05:00pm 24.9 25.6 21.2 80 2.5 ESE 19 26 10 14 1012.7 1011.1 0.0
20/04:30pm 24.8 25.6 21.3 81 2.3 E 19 28 10 15 1012.6 - 0.0
20/04:22pm 24.9 25.4 20.8 78 2.7 E 19 28 10 15 1012.5 - 0.0
20/04:10pm 25.1 26.1 21.0 78 2.7 E 17 24 9 13 1012.5 1010.9 0.0
20/04:00pm 25.2 25.8 21.1 78 2.7 E 19 26 10 14 1012.5 1010.9 0.0
20/03:56pm 25.3 26.0 21.2 78 2.7 E 19 32 10 17 1012.6 - 0.0
20/03:44pm 25.4 25.8 20.9 76 3.0 E 20 30 11 16 1012.6 - 0.0
20/03:39pm 25.2 25.5 21.5 80 2.5 E 22 30 12 16 1012.6 - 0.0
20/03:30pm 25.3 26.0 21.6 80 2.5 ENE 20 30 11 16 1012.6 - 0.0
20/03:16pm 24.6 25.2 21.3 82 2.2 ESE 20 30 11 16 1012.7 - 0.0
20/03:01pm 24.8 25.4 21.3 81 2.3 ESE 20 28 11 15 1012.9 - 0.0
20/03:00pm 25.0 25.8 21.7 82 2.2 ESE 20 28 11 15 1012.9 1011.3 0.0
20/02:31pm 25.1 26.1 21.8 82 2.2 ESE 19 26 10 14 1013.2 - 0.0
20/02:30pm 25.1 26.2 22.0 83 2.1 ESE 19 26 10 14 1013.2 - 0.0
20/02:16pm 25.2 25.9 21.5 80 2.5 ESE 20 28 11 15 1013.3 - 0.0
20/02:11pm 25.4 26.2 21.7 80 2.5 ESE 20 30 11 16 1013.4 - 0.0
20/02:07pm 25.4 26.2 21.7 80 2.5 ESE 20 30 11 16 1013.4 1011.8 0.0
20/02:06pm 25.4 26.2 21.7 80 2.5 ESE 20 30 11 16 1013.4 - 0.0
20/02:00pm 25.8 26.6 21.7 78 2.8 E 20 30 11 16 1013.5 1011.9 0.0
20/01:46pm 25.9 26.8 21.6 77 2.9 E 19 28 10 15 1013.5 - 0.0
20/01:43pm 26.0 27.1 21.9 78 2.8 E 19 28 10 15 1013.6 1012.0 0.0
20/01:30pm 26.0 26.9 21.9 78 2.8 ESE 20 28 11 15 1013.6 1012.1 0.0
20/01:00pm 25.5 26.3 21.8 80 2.5 ESE 20 28 11 15 1014.0 1012.5 0.0
20/12:57pm 25.7 26.2 22.0 80 2.5 E 22 32 12 17 1014.1 1012.5 0.0
20/12:43pm 25.7 26.4 21.6 78 2.8 ESE 20 30 11 16 1014.3 1012.7 0.0
20/12:30pm 25.5 25.7 21.4 78 2.7 E 22 32 12 17 1014.4 - 0.0
20/12:10pm 25.3 25.8 21.2 78 2.7 ESE 20 28 11 15 1014.6 1013.0 0.0
20/12:07pm 25.5 26.1 21.4 78 2.7 ESE 20 28 11 15 1014.6 - 0.0
20/12:00pm 25.3 26.1 21.4 79 2.6 E 19 26 10 14 1014.7 1013.1 0.0
20/11:55am 25.8 27.1 21.7 78 2.8 E 17 24 9 13 1014.7 1013.1 0.0
20/11:53am 25.9 27.0 21.3 76 3.1 E 17 24 9 13 1014.7 - 0.0
20/11:30am 25.8 26.3 21.9 79 2.6 E 22 30 12 16 1014.8 - 0.0
20/11:07am 25.3 25.7 21.8 81 2.4 ESE 22 32 12 17 1015.1 - 0.0
20/11:00am 25.0 24.9 21.5 81 2.3 ESE 24 32 13 17 1015.1 1013.6 0.0
20/10:50am 25.4 26.1 21.5 79 2.6 ESE 20 30 11 16 1015.3 - 0.0
20/10:30am 25.2 25.4 21.3 79 2.6 ESE 22 37 12 20 1015.3 - 0.0
20/10:00am 25.1 25.3 21.4 80 2.5 ESE 22 32 12 17 1015.2 1013.7 0.0
20/09:30am 24.5 25.1 21.0 81 2.3 E 19 28 10 15 1015.2 - 0.0
20/09:25am 25.2 25.7 20.9 77 2.9 E 19 30 10 16 1015.1 - 0.0
20/09:00am 24.7 25.5 21.4 82 2.2 ESE 19 28 10 15 1015.2 1013.7 -
20/08:45am 24.2 24.8 21.1 83 2.1 ESE 19 26 10 14 1015.0 - 0.0
20/08:42am 24.2 24.8 21.1 83 2.1 ESE 19 26 10 14 1015.0 1013.5 -
20/08:41am 24.2 24.8 21.1 83 2.1 ESE 19 26 10 14 1015.0 - 0.0
20/08:30am 23.9 24.9 21.0 84 1.9 ESE 17 24 9 13 1014.9 1013.3 -
20/08:00am 24.0 24.6 21.1 84 1.9 ESE 19 28 10 15 1014.7 1013.1 -
20/07:38am 23.5 24.2 21.2 87 1.5 ESE 19 28 10 15 1014.4 - 0.0
20/07:36am 23.5 24.2 21.2 87 1.5 ESE 19 28 10 15 1014.5 1012.9 -
20/07:34am 23.5 24.2 21.2 87 1.5 ESE 19 28 10 15 1014.4 - 0.0
20/07:30am 23.5 24.0 21.2 87 1.5 ESE 20 30 11 16 1014.4 1012.8 -
20/07:11am 23.3 23.8 20.8 86 1.6 ESE 19 28 10 15 1014.1 - 0.0
20/07:08am 23.3 24.2 20.8 86 1.6 ESE 17 28 9 15 1014.1 1012.5 -
20/07:00am 23.3 24.3 21.0 87 1.5 ESE 17 24 9 13 1014.1 1012.5 -
20/06:39am 23.5 24.6 21.2 87 1.5 ESE 17 26 9 14 1014.0 - 0.0
20/06:30am 23.5 24.0 21.2 87 1.5 ESE 20 30 11 16 1013.9 1012.3 -
20/06:25am 23.4 24.3 21.5 89 1.3 ESE 19 24 10 13 1013.8 1012.2 -
20/06:18am 23.4 24.0 21.3 88 1.4 ESE 20 28 11 15 1013.7 - 0.0
20/06:00am 23.3 23.8 21.2 88 1.4 ESE 20 30 11 16 1013.6 1012.0 -
20/05:30am 23.3 23.7 21.0 87 1.5 ESE 20 30 11 16 1013.4 1011.8 -
20/05:00am 23.1 22.9 20.6 86 1.6 SE 22 32 12 17 1013.3 1011.7 -
20/04:30am 23.2 24.0 21.3 89 1.3 SE 19 28 10 15 1013.1 1011.5 -
20/04:00am 23.2 23.5 20.7 86 1.6 ESE 20 30 11 16 1013.1 1011.5 0.0
20/03:43am 23.1 23.7 21.0 88 1.4 ESE 19 28 10 15 1013.2 1011.6 -
20/03:31am 23.3 24.1 21.4 89 1.3 ESE 19 26 10 14 1013.2 1011.6 -
20/03:30am 23.3 23.9 21.4 89 1.3 ESE 20 26 11 14 1013.2 1011.6 -
20/03:28am 23.3 23.9 21.4 89 1.3 ESE 20 26 11 14 1013.2 1011.6 -
20/03:00am 23.4 23.9 21.1 87 1.5 ESE 20 30 11 16 1013.6 1012.0 -
20/02:30am 23.5 24.0 21.2 87 1.5 ESE 20 26 11 14 1013.9 1012.3 -
20/02:08am 23.6 24.3 21.5 88 1.4 ESE 20 28 11 15 1014.1 - 0.0
20/02:05am 23.6 24.3 21.5 88 1.4 ESE 20 28 11 15 1014.1 1012.5 -
20/02:04am 23.5 24.1 21.4 88 1.4 ESE 20 28 11 15 1014.2 - 0.0
20/02:00am 23.5 24.1 21.4 88 1.4 ESE 20 28 11 15 1014.1 1012.5 -
20/01:30am 23.4 24.0 21.3 88 1.4 ESE 20 28 11 15 1014.3 1012.7 -
20/01:00am 23.6 24.2 21.3 87 1.5 ESE 20 32 11 17 1014.4 1012.8 -
20/12:30am 23.6 23.7 21.1 86 1.7 ESE 22 32 12 17 1014.6 1013.0 -
20/12:09am 23.6 24.2 21.3 87 1.5 ESE 20 26 11 14 1014.6 - 0.0
20/12:00am 23.6 24.2 21.3 87 1.5 ESE 20 28 11 15 1014.6 1013.0 -
 
Date/Time
WST
Temp
°C
App
Temp
°C
Dew
Point
°C
Rel
Hum
%
Delta-T
°C
Wind Press
QNH
hPa
Press
MSL
hPa
Rain since
9am
mm
Dir  Spd
km/h
Gust
km/h
Spd
kts
Gust
kts
19/11:58pm 23.7 23.9 21.4 87 1.5 ESE 22 30 12 16 1014.6 - 0.0
19/11:54pm 23.6 23.8 21.3 87 1.5 ESE 22 30 12 16 1014.6 - 0.0
19/11:30pm 23.7 24.3 21.4 87 1.5 ESE 20 30 11 16 1014.6 1013.0 -
19/11:26pm 23.6 24.2 21.3 87 1.5 ESE 20 28 11 15 1014.6 - 0.0
19/11:25pm 23.6 24.1 21.1 86 1.7 ESE 20 30 11 16 1014.6 - 0.0
19/11:09pm 23.7 24.6 21.6 88 1.4 ESE 19 26 10 14 1014.6 - 0.0
19/11:00pm 23.6 24.5 21.5 88 1.4 ESE 19 26 10 14 1014.6 1013.0 0.0
19/10:51pm 23.5 24.0 21.2 87 1.5 ESE 20 28 11 15 1014.6 - 0.0
19/10:40pm 23.5 24.0 21.2 87 1.5 ESE 20 28 11 15 1014.6 - 0.0
19/10:30pm 23.5 24.0 21.2 87 1.5 ESE 20 30 11 16 1014.6 1013.0 0.0
19/10:19pm 23.5 24.0 21.2 87 1.5 ESE 20 28 11 15 1014.5 - 0.0
19/10:00pm 23.7 24.3 21.4 87 1.5 ESE 20 28 11 15 1014.4 1012.8 0.0
19/09:30pm 23.7 24.2 21.2 86 1.7 ESE 20 28 11 15 1014.1 1012.5 0.0
19/09:28pm 23.7 24.2 21.2 86 1.7 ESE 20 30 11 16 1014.0 - 0.0
19/09:00pm 23.6 24.0 20.9 85 1.8 ESE 20 26 11 14 1013.7 1012.1 0.0
19/08:49pm 23.6 24.1 20.9 85 1.8 ESE 19 28 10 15 1013.7 - 0.0
19/08:30pm 23.7 24.3 21.0 85 1.8 ESE 19 26 10 14 1013.6 1012.0 0.0
19/08:27pm 23.6 24.1 20.9 85 1.8 ESE 19 26 10 14 1013.6 - 0.0
19/08:00pm 23.6 24.0 20.9 85 1.8 ESE 20 26 11 14 1013.3 1011.7 0.0
19/07:30pm 23.8 23.7 20.7 83 2.0 ESE 22 30 12 16 1013.2 1011.6 0.0
19/07:00pm 23.8 23.8 20.9 84 1.9 ESE 22 30 12 16 1013.1 1011.5 0.0
19/06:54pm 23.8 24.4 21.1 85 1.8 ESE 19 26 10 14 1013.1 - 0.0
19/06:50pm 23.8 24.4 21.1 85 1.8 ESE 19 26 10 14 1013.1 - 0.0
19/06:44pm 24.0 24.6 21.3 85 1.8 ESE 20 28 11 15 1013.1 - 0.0
19/06:40pm 24.0 24.6 21.3 85 1.8 ESE 20 28 11 15 1013.1 - 0.0
19/06:30pm 24.2 25.0 21.3 84 1.9 ESE 19 26 10 14 1013.1 1011.5 0.0
19/06:28pm 24.2 24.7 20.9 82 2.2 ESE 19 26 10 14 1013.1 - 0.0
19/06:24pm 24.2 24.7 20.9 82 2.2 ESE 19 26 10 14 1013.1 - 0.0
19/06:17pm 24.3 24.9 21.0 82 2.2 ESE 19 26 10 14 1013.1 1011.5 0.0
19/06:00pm 24.4 25.3 20.9 81 2.3 ESE 17 26 9 14 1013.0 1011.4 0.0
19/05:49pm 24.5 25.8 21.6 84 1.9 ESE 17 30 9 16 1012.9 1011.3 0.0
19/05:47pm 24.5 25.8 21.6 84 1.9 ESE 17 28 9 15 1013.0 - 0.0
19/05:43pm 24.5 25.8 21.6 84 1.9 ESE 17 28 9 15 1013.0 - 0.0
19/05:30pm 24.7 25.8 21.2 81 2.3 ESE 17 22 9 12 1012.8 1011.2 0.0
19/05:00pm 24.9 26.6 21.6 82 2.2 E 15 20 8 11 1012.5 1010.9 0.0
19/04:30pm 25.6 26.1 21.9 80 2.5 E 22 32 12 17 1012.4 1010.8 0.0
19/04:00pm 25.3 25.4 21.2 78 2.7 E 22 32 12 17 1012.3 1010.7 0.0
19/03:30pm 25.7 26.1 21.8 79 2.6 E 22 30 12 16 1012.5 1010.9 0.0
19/03:26pm 25.2 25.4 21.3 79 2.6 E 22 30 12 16 1012.5 - 0.0
19/03:16pm 25.2 25.2 20.9 77 2.9 E 22 33 12 18 1012.6 1011.0 0.0
19/03:07pm 25.2 25.8 21.3 79 2.6 E 20 32 11 17 1012.7 - 0.0
19/03:06pm 25.3 25.9 21.4 79 2.6 E 20 32 11 17 1012.7 - 0.0
19/03:00pm 25.1 25.3 21.4 80 2.5 E 22 30 12 16 1012.8 1011.2 0.0
19/02:41pm 25.3 25.4 21.8 81 2.4 E 24 35 13 19 1012.7 1011.1 0.0
19/02:30pm 25.8 26.4 22.1 80 2.5 E 22 30 12 16 1012.8 1011.2 0.0
19/02:20pm 25.5 26.2 21.6 79 2.6 E 20 30 11 16 1012.9 1011.3 0.0
19/02:18pm - - - - - E 20 30 11 16 - - 0.0
19/02:00pm 25.2 25.9 21.5 80 2.5 E 20 32 11 17 1013.3 1011.7 0.0
19/01:30pm 26.0 26.9 21.9 78 2.8 E 20 30 11 16 1013.6 1012.0 0.0
19/01:27pm - - - - - E 20 28 11 15 - - 0.0
19/01:08pm 26.1 27.4 21.7 77 3.0 E 17 22 9 12 - - 0.0
19/01:00pm 26.0 27.0 21.7 77 2.9 E 19 26 10 14 1014.0 1012.4 0.0
19/12:57pm 26.5 28.1 22.8 80 2.5 E 19 26 10 14 1014.0 1012.4 0.0
19/12:43pm 25.5 25.9 21.8 80 2.5 ESE 22 28 12 15 1014.1 - 0.0
19/12:39pm 25.5 26.3 21.8 80 2.5 E 20 32 11 17 1014.1 - 0.0
19/12:30pm 25.9 26.7 21.8 78 2.8 E 20 28 11 15 1014.2 1012.6 0.0
19/12:25pm 26.0 26.9 21.9 78 2.8 E 20 28 11 15 1014.3 - 0.0
19/12:22pm 25.9 26.7 21.3 76 3.1 E 19 28 10 15 1014.3 1012.7 0.0
19/12:00pm 25.9 26.5 21.3 76 3.1 ESE 20 30 11 16 1014.4 1012.8 0.0
19/11:50am 25.6 26.4 21.7 79 2.6 E 20 30 11 16 1014.6 - 0.0
19/11:48am 25.4 26.2 21.7 80 2.5 ESE 20 32 11 17 1014.5 1012.9 0.0
19/11:46am 25.6 26.4 21.7 79 2.6 E 20 30 11 16 1014.6 - 0.0
19/11:45am 25.4 26.2 21.7 80 2.5 ESE 20 30 11 16 1014.6 - 0.0
19/11:41am 25.4 26.2 21.7 80 2.5 ESE 20 30 11 16 1014.6 - 0.0
19/11:30am 25.2 26.0 21.7 81 2.3 ESE 20 33 11 18 1014.6 1013.0 0.0
19/11:20am 26.0 26.8 21.7 77 2.9 E 20 32 11 17 1014.6 - 0.0
19/11:08am 26.1 26.9 21.3 75 3.2 E 19 24 10 13 1014.6 - 0.0
19/11:05am 26.1 27.1 21.7 77 3.0 E 19 26 10 14 1014.6 1013.0 0.0
19/11:04am 26.1 26.9 21.3 75 3.2 E 19 24 10 13 1014.6 - 0.0
19/11:00am 26.2 27.2 22.1 78 2.8 ESE 20 30 11 16 1014.6 1013.0 0.0
19/10:48am 25.8 26.9 21.9 79 2.6 E 19 24 10 13 1014.6 - 0.0
19/10:45am 25.7 26.6 21.6 78 2.8 E 19 24 10 13 1014.6 1013.0 0.0
19/10:44am 25.8 26.9 21.9 79 2.6 E 19 24 10 13 1014.6 - 0.0
19/10:30am 25.5 26.0 21.2 77 2.9 E 20 32 11 17 1014.6 1013.0 0.0
19/10:00am 25.1 25.9 21.8 82 2.2 E 20 32 11 17 1014.9 1013.3 0.0
19/09:50am 25.3 26.3 21.8 81 2.4 E 19 26 10 14 1015.0 - 0.0
19/09:48am 25.3 26.7 21.8 81 2.4 E 17 26 9 14 - - 0.0
19/09:47am 25.3 26.8 22.0 82 2.2 E 17 26 9 14 1015.0 1013.5 0.0
19/09:46am 25.3 26.7 21.8 81 2.4 E 17 26 9 14 1015.0 - 0.0
19/09:30am 24.9 25.5 21.4 81 2.3 E 20 32 11 17 1015.1 1013.6 0.0
19/09:00am 24.5 25.2 21.2 82 2.2 E 19 28 10 15 1014.9 1013.3 0.0
19/08:36am 24.5 25.6 21.2 82 2.2 E 17 28 9 15 1014.6 - 0.0
19/08:33am 24.3 25.2 20.8 81 2.3 E 17 28 9 15 1014.6 1013.0 0.0
19/08:32am 24.5 25.6 21.2 82 2.2 E 17 28 9 15 1014.6 - 0.0
19/08:30am 24.5 25.5 21.0 81 2.3 E 17 28 9 15 1014.5 1012.9 0.0
19/08:02am 24.2 24.8 21.1 83 2.1 E 19 26 10 14 - - 0.0
19/08:00am 24.2 24.8 21.1 83 2.1 E 19 26 10 14 1014.4 1012.8 0.0
19/07:51am 23.9 24.5 21.0 84 1.9 E 19 24 10 13 1014.4 1012.8 0.0
19/07:49am 23.9 24.6 21.2 85 1.8 E 19 30 10 16 1014.2 - 0.0
19/07:45am 23.9 24.6 21.2 85 1.8 E 19 30 10 16 1014.2 - 0.0
19/07:30am 23.6 24.0 20.7 84 1.9 E 19 32 10 17 1014.1 1012.5 0.0
19/07:16am 23.3 24.5 20.6 85 1.8 E 15 24 8 13 1013.9 - 0.0
19/07:13am 23.4 24.2 20.7 85 1.8 E 17 26 9 14 1013.9 1012.3 0.0
19/07:12am 23.3 24.5 20.6 85 1.8 E 15 24 8 13 1013.9 - 0.0
19/07:00am 23.4 24.3 20.9 86 1.7 E 17 30 9 16 1013.9 1012.3 0.0
19/06:30am 23.4 24.8 21.1 87 1.5 E 15 22 8 12 1013.7 1012.1 0.0
19/06:28am 23.4 24.8 21.1 87 1.5 E 15 22 8 12 1013.7 - 0.0
19/06:27am 23.5 25.0 21.2 87 1.5 E 15 22 8 12 1013.8 - 0.0
19/06:25am 23.4 24.8 21.1 87 1.5 E 15 22 8 12 1013.7 - 0.0
19/06:24am 23.5 25.0 21.2 87 1.5 E 15 22 8 12 1013.8 - 0.0
19/06:20am 23.4 24.4 21.1 87 1.5 E 17 24 9 13 1013.7 - 0.0
19/06:18am 23.4 24.8 21.1 87 1.5 E 15 24 8 13 1013.7 1012.1 0.0
19/06:17am 23.4 24.4 21.1 87 1.5 E 17 24 9 13 1013.7 - 0.0
19/06:00am 23.4 24.1 20.5 84 1.9 E 17 24 9 13 1013.8 1012.2 0.0
19/05:58am 23.5 24.2 20.4 83 2.0 E 17 24 9 13 1013.8 - 0.0
19/05:56am 23.4 24.0 20.3 83 2.0 E 17 24 9 13 1013.8 1012.2 0.0
19/05:40am 23.7 24.1 21.0 85 1.8 E 20 32 11 17 - - 0.0
19/05:30am 23.6 24.0 20.9 85 1.8 E 20 30 11 16 1013.9 1012.3 0.0
19/05:17am 23.6 25.2 21.5 88 1.4 E 15 24 8 13 1013.9 - 0.0
19/05:14am 23.6 25.2 21.5 88 1.4 E 15 24 8 13 1013.9 - 0.0
19/05:00am 23.5 24.7 21.4 88 1.4 ESE 17 22 9 12 1013.9 1012.3 0.0
19/04:52am 23.4 24.6 21.5 89 1.3 ESE 17 20 9 11 1013.9 - 0.0
19/04:48am 23.4 24.5 21.3 88 1.4 E 17 22 9 12 1013.9 - 0.0
19/04:30am 23.5 24.8 21.6 89 1.3 E 17 28 9 15 1013.9 1012.3 0.0
19/04:23am 23.6 24.9 21.7 89 1.3 ESE 17 28 9 15 1013.9 - 0.0
19/04:22am 23.6 24.9 21.7 89 1.3 ESE 17 28 9 15 1013.9 1012.3 0.0
19/04:17am 23.5 24.6 21.2 87 1.5 ESE 17 26 9 14 1013.9 - 0.0
19/04:14am 23.5 24.6 21.2 87 1.5 ESE 17 26 9 14 1013.9 1012.3 0.0
19/04:13am 23.5 24.2 21.2 87 1.5 ESE 19 26 10 14 1013.9 - 0.0
19/04:00am 23.4 24.0 21.1 87 1.5 ESE 19 24 10 13 1013.8 1012.2 0.0
19/03:55am 23.4 24.3 20.9 86 1.7 ESE 17 24 9 13 1013.8 - 0.0
19/03:50am 23.4 24.4 21.1 87 1.5 ESE 17 24 9 13 1013.8 1012.2 0.0
19/03:30am 23.6 24.6 21.7 89 1.3 ESE 19 26 10 14 1013.8 1012.2 0.0
19/03:25am 23.6 24.9 21.7 89 1.3 E 17 26 9 14 1013.8 - 0.0
19/03:23am 23.6 24.8 21.5 88 1.4 E 17 26 9 14 1013.8 - 0.0
19/03:00am 23.6 24.9 21.7 89 1.3 ESE 17 26 9 14 1013.9 1012.3 0.0
19/02:48am 23.6 24.5 21.5 88 1.4 E 19 24 10 13 1014.0 - 0.0
19/02:46am 23.6 24.8 21.5 88 1.4 E 17 24 9 13 1014.0 1012.4 0.0
19/02:45am 23.6 24.8 21.5 88 1.4 E 17 24 9 13 1014.0 - 0.0
19/02:30am 23.5 24.6 21.2 87 1.5 E 17 28 9 15 1014.2 1012.6 0.0
19/02:00am 23.5 24.7 21.4 88 1.4 ESE 17 24 9 13 1014.6 1013.0 0.0
19/01:30am 23.6 24.5 21.5 88 1.4 E 19 26 10 14 1015.0 1013.5 0.0
19/01:00am 23.7 25.2 21.2 86 1.7 E 15 24 8 13 1015.0 1013.5 0.0
19/12:30am 23.7 24.8 21.2 86 1.7 ESE 17 24 9 13 1014.9 1013.3 0.0
19/12:23am 23.6 24.5 20.9 85 1.8 E 17 24 9 13 1014.9 - 0.0
19/12:20am 23.6 24.5 20.9 85 1.8 E 17 24 9 13 1014.9 1013.3 0.0
19/12:19am 23.6 24.5 20.9 85 1.8 E 17 24 9 13 1014.9 - 0.0
19/12:00am 23.6 25.1 21.3 87 1.5 E 15 28 8 15 1014.9 1013.3 0.0
 
Date/Time
WST
Temp
°C
App
Temp
°C
Dew
Point
°C
Rel
Hum
%
Delta-T
°C
Wind Press
QNH
hPa
Press
MSL
hPa
Rain since
9am
mm
Dir  Spd
km/h
Gust
km/h
Spd
kts
Gust
kts
18/11:47pm 23.7 25.0 21.6 88 1.4 E 17 22 9 12 1015.0 - 0.0
18/11:46pm 23.7 25.0 21.6 88 1.4 E 17 22 9 12 1015.0 - 0.0
18/11:44pm 23.7 25.1 21.8 89 1.3 ESE 17 22 9 12 1015.0 1013.5 0.0
18/11:43pm 23.7 25.0 21.6 88 1.4 ESE 17 22 9 12 1015.0 1013.5 0.0
18/11:30pm 23.7 25.3 21.4 87 1.5 E 15 24 8 13 1015.1 1013.6 0.0
18/11:00pm 23.9 25.7 21.8 88 1.4 E 15 20 8 11 1015.3 1013.8 0.0
18/10:51pm 23.9 25.6 21.6 87 1.5 E 15 20 8 11 - - 0.0
18/10:30pm 23.9 25.7 21.8 88 1.4 ESE 15 24 8 13 1015.3 1013.8 0.0
18/10:25pm 24.0 25.8 21.9 88 1.4 E 15 24 8 13 1015.3 - 0.0
18/10:00pm 23.9 25.9 22.2 90 1.1 ESE 15 24 8 13 1015.2 1013.7 0.0
18/09:57pm 23.9 25.8 22.0 89 1.3 ESE 15 24 8 13 1015.1 - 0.0
18/09:54pm 23.9 25.8 22.0 89 1.3 ESE 15 24 8 13 1015.1 1013.6 0.0
18/09:53pm 23.9 25.8 22.0 89 1.3 ESE 15 24 8 13 1015.1 - 0.0
18/09:50pm 23.8 25.4 21.5 87 1.5 E 15 22 8 12 1015.0 - 0.0
18/09:46pm 23.8 25.4 21.5 87 1.5 ESE 15 22 8 12 1015.0 1013.5 0.0
18/09:30pm 23.8 25.8 21.5 87 1.5 E 13 26 7 14 1014.8 1013.2 0.0
18/09:29pm 23.8 25.5 21.7 88 1.4 E 15 26 8 14 1014.8 - 0.0
18/09:27pm 24.0 25.4 21.9 88 1.4 ESE 17 26 9 14 1014.7 - 0.0
18/09:24pm 24.0 25.4 21.9 88 1.4 ESE 17 26 9 14 1014.8 1013.2 0.0
18/09:23pm 24.0 25.4 21.9 88 1.4 ESE 17 26 9 14 1014.7 - 0.0
18/09:01pm 23.9 25.2 21.6 87 1.5 ESE 17 28 9 15 1014.4 1012.8 0.0
18/09:00pm 23.9 25.2 21.6 87 1.5 ESE 17 28 9 15 1014.4 1012.8 0.0
18/08:49pm 23.8 24.8 21.7 88 1.4 ESE 19 30 10 16 1014.2 1012.6 0.0
18/08:30pm 23.9 24.5 21.4 86 1.7 ESE 20 32 11 17 1013.8 1012.2 0.0
18/08:00pm 24.0 24.8 21.3 85 1.8 ESE 19 28 10 15 1013.6 1012.0 0.0
18/07:57pm 24.0 24.6 21.3 85 1.8 ESE 20 30 11 16 1013.6 1012.0 0.0
18/07:56pm 24.0 24.8 21.3 85 1.8 ESE 19 30 10 16 1013.6 - 0.0
18/07:30pm 24.3 25.4 22.0 87 1.5 ESE 19 28 10 15 1013.3 1011.7 0.0
18/07:00pm 24.3 25.1 21.8 86 1.7 ESE 20 28 11 15 1013.1 1011.5 0.0
18/06:58pm 24.2 25.0 21.7 86 1.7 ESE 20 30 11 16 1013.2 - 0.0
18/06:34pm 24.4 25.4 22.1 87 1.5 ESE 20 32 11 17 1013.1 1011.5 0.0
18/06:30pm 24.5 25.5 22.2 87 1.6 ESE 20 30 11 16 1013.0 1011.4 0.0
18/06:26pm 24.5 25.3 21.8 85 1.8 ESE 20 30 11 16 1013.0 - 0.0
18/06:23pm 24.5 25.3 21.8 85 1.8 ESE 20 30 11 16 1013.0 1011.4 0.0
18/06:22pm 24.5 25.5 21.8 85 1.8 ESE 19 30 10 16 1013.0 - 0.0
18/06:21pm 24.5 25.3 21.8 85 1.8 ESE 20 30 11 16 1013.0 1011.4 0.0
18/06:05pm 24.6 25.7 21.9 85 1.8 ESE 19 28 10 15 1013.0 - 0.0
18/06:04pm 24.6 25.9 21.7 84 1.9 ESE 17 28 9 15 1013.0 - 0.0
18/06:02pm 24.6 25.7 21.9 85 1.8 ESE 19 28 10 15 1013.0 1011.4 0.0
18/06:01pm 24.6 25.7 21.9 85 1.8 ESE 19 28 10 15 1013.0 - 0.0
18/06:00pm 24.6 25.9 21.7 84 1.9 ESE 17 28 9 15 1013.0 1011.4 0.0
18/05:30pm 24.7 25.6 21.6 83 2.1 ESE 19 28 10 15 1013.0 1011.4 0.0
18/05:05pm 24.8 25.9 21.9 84 1.9 ESE 19 32 10 17 1012.9 1011.3 0.0
18/05:01pm 24.8 25.6 21.7 83 2.1 ESE 20 32 11 17 1012.9 - 0.0
18/05:00pm 24.8 25.6 21.7 83 2.1 ESE 20 32 11 17 1012.9 1011.3 0.0
18/04:41pm 25.2 26.6 21.9 82 2.2 ESE 17 24 9 13 1012.8 - 0.0
18/04:37pm 25.2 26.6 21.9 82 2.2 ESE 17 24 9 13 1012.8 1011.2 0.0
18/04:30pm 25.4 26.6 22.1 82 2.2 ESE 19 28 10 15 1012.8 1011.2 0.0
18/04:00pm 25.0 25.8 21.3 80 2.5 ESE 19 28 10 15 1012.9 1011.3 0.0
18/03:30pm 25.2 26.0 21.7 81 2.3 ESE 20 30 11 16 1013.1 1011.5 0.0
18/03:00pm 25.7 26.2 22.0 80 2.5 ESE 22 32 12 17 1013.0 1011.4 0.0
18/02:30pm 25.9 26.3 21.8 78 2.8 ESE 22 39 12 21 1013.3 1011.7 0.0
18/02:00pm 25.5 26.3 21.8 80 2.5 ESE 20 32 11 17 1013.6 1012.0 0.0
18/01:30pm 26.6 27.7 22.4 78 2.9 E 20 35 11 19 1013.9 1012.3 0.0
18/01:22pm 26.4 26.5 21.8 76 3.1 E 24 35 13 19 1014.0 - 0.0
18/01:19pm 26.1 25.9 21.3 75 3.2 E 24 35 13 19 1014.0 1012.4 0.0
18/01:18pm 26.4 26.8 21.8 76 3.1 E 22 35 12 19 1014.0 - 0.0
18/01:06pm 26.4 27.5 22.3 78 2.8 E 20 33 11 18 - - 0.0
18/01:00pm 26.1 26.9 21.7 77 3.0 E 20 33 11 18 1014.3 1012.7 0.0
18/12:56pm 26.0 27.5 22.7 82 2.2 E 19 28 10 15 1014.3 - 0.0
18/12:54pm 26.1 27.5 22.6 81 2.4 E 19 30 10 16 1014.2 - 0.0
18/12:52pm 26.0 27.5 22.7 82 2.2 E 19 28 10 15 1014.3 1012.7 0.0
18/12:50pm 26.2 27.4 22.5 80 2.5 E 20 30 11 16 1014.4 - 0.0
18/12:47pm 26.1 27.2 22.4 80 2.5 E 20 30 11 16 1014.4 1012.8 0.0
18/12:30pm 25.6 26.9 22.3 82 2.2 ESE 19 30 10 16 1014.5 1012.9 0.0
18/12:25pm 25.5 26.6 22.0 81 2.4 E 19 26 10 14 1014.5 - 0.0
18/12:14pm 25.1 26.2 22.0 83 2.1 ESE 19 32 10 17 1014.6 - 0.0
18/12:02pm 25.1 26.2 22.0 83 2.1 E 19 28 10 15 1014.6 - 0.0
18/12:00pm 25.1 26.0 22.0 83 2.1 ESE 20 30 11 16 1014.6 1013.0 0.0
18/11:38am 25.0 26.3 22.3 85 1.8 ESE 19 32 10 17 1015.0 - 0.0
18/11:35am 25.0 26.2 22.1 84 2.0 ESE 19 32 10 17 1015.0 1013.5 0.0
18/11:34am 25.0 26.3 22.3 85 1.8 ESE 19 32 10 17 1015.0 - 0.0
18/11:30am 24.9 26.0 22.0 84 2.0 ESE 19 32 10 17 1015.0 1013.5 0.0
18/11:00am 25.8 25.6 21.2 76 3.1 E 24 37 13 20 1015.1 1013.6 0.0
18/10:30am 25.6 26.2 21.3 77 2.9 E 20 35 11 19 1015.1 1013.6 0.0
18/10:00am 25.4 24.1 20.6 75 3.2 E 28 39 15 21 1015.2 1013.7 0.4
18/09:30am 25.2 25.1 21.5 80 2.5 E 24 35 13 19 1015.1 1013.6 0.4
18/09:00am 24.8 25.1 21.5 82 2.2 E 22 35 12 19 1015.1 1013.6 0.4
18/08:30am 24.6 25.6 22.1 86 1.7 E 20 30 11 16 1015.0 1013.5 0.4
18/08:00am 24.1 23.6 21.4 85 1.8 E 26 37 14 20 1014.6 1013.0 0.4
18/07:30am 23.7 24.0 21.6 88 1.4 E 22 33 12 18 1014.4 1012.8 0.4
18/07:22am 23.6 23.9 21.5 88 1.4 E 22 33 12 18 1014.3 - 0.4
18/07:18am 23.6 23.9 21.5 88 1.4 E 22 33 12 18 1014.3 1012.7 0.4

Other formats

Comma delimited format used in spreadsheet applications
http://www.bom.gov.au/fwo/IDW60801/IDW60801.96995.axf

JavaScript Object Notation format (JSON) in row-major order
http://www.bom.gov.au/fwo/IDW60801/IDW60801.96995.json

Data quality

Most of these data are generated automatically and are frequently updated. Quality checks on data are not normally performed. It is possible for incorrect values to appear. Refer to information at About Latest Weather Observations and please check the disclaimer before using these data.